samedi 15 février 2014

ALERTE SPOTTING 15/02/14

73H D-ABME Air Berlin (oneworld)  AB8154/AB8155   08h40/09h20

320 F-HBIO Aigle Azur
   XK752/  08h50

744 EC-KQC Pullmantur Air
   PLM602P/PLM6021   10h00/12h25

333 CS-TRI Hifly (blanc?)
  TX56543/TX563P   12h21/14h00

Manque les prévisions/immats Air Europa / Flybe / AZ / TAP / BA / certains Air Algérie
*** Heures en Local Time / prévisions soumises
 à modifications de dernières minutes ***

le TAF de la journée


METAR: LFPO 150330Z 21017KT 170V240 9999 BKN026 BKN150 10/06 Q0996
NOSIG=

TAF LONG: LFPO 142300Z 1500/1606 22017G35KT 9999 SCT030 BKN060 TEMPO
1500/1502 22020G43KT -RA BECMG 1501/1503 SCT020 BKN060 PROB30 TEMPO
1503/1510 -SHRA FEW015TCU BKN020 TEMPO 1510/1519 5000 SHRA FEW018CB
BKN020 BECMG 1519/1521 22015KT TEMPO 1523/1606 BKN012= 


 Les logs des jours précédents :
 http://www.airkalo.com/ORLYAVIATION/Logdumois.html